Justice — WDG2184 — position and weather

sailwx.info

Track history (hours):
 
Tides and Currents Weather Stations Pressure Air Temp Water Temp Dewpoint Dewpoint Depression Visibility Wind Speed Wind Dir Waves Ship Positions

Justice

Owner: Boston Towing & Transportation, Boston, MA. More information available from US FCC via Universal Licensing System and Coast Guard Vessel Documentation Center.

Last reported at 2016-May-04 03:33 UTC. Time now 2016-May-04 04:11 UTC.
Position N 42°23' W 071°03'.

Length 30 m; draft 5.8 m.

Type: Tug. MMSI: 367513010.

Date/timePositionNaut miles runAvg speedWind from/ knotsBaromVisibWave heightAir tempDewpointWater temp
2016-May-04 03:33N 42°23' W 071°03'0 0.0
2016-May-04 02:33N 42°23' W 071°03'0 0.0
2016-May-04 01:33N 42°23' W 071°03'0 0.0
2016-May-04 00:33N 42°23' W 071°03'0 0.0
2016-May-03 23:33N 42°23' W 071°03'2 1.6
2016-May-03 22:33N 42°24' W 071°01'3 2.7
2016-May-03 21:34N 42°21' W 071°02'2 1.6
2016-May-03 20:33N 42°23' W 071°03'0 0.0
2016-May-03 19:33N 42°23' W 071°03'2 2.1
2016-May-03 18:33N 42°21' W 071°01'7 6.6
2016-May-03 17:33N 42°15' W 070°57'1 0.5
2016-May-03 16:33N 42°15' W 070°57'6 6.0
2016-May-03 15:33N 42°20' W 071°01'3 2.7
2016-May-03 14:33N 42°23' W 071°01'1 0.3
2016-May-03 11:30N 42°23' W 071°03'0 0.3
2016-May-03 10:34N 42°23' W 071°03'0 0.3
2016-May-03 09:33N 42°23' W 071°02'0 0.4
2016-May-03 08:33N 42°23' W 071°03'0 0.1
2016-May-03 07:33N 42°23' W 071°03'0 0.0
2016-May-03 06:33N 42°23' W 071°03'0 0.0
2016-May-03 05:33N 42°23' W 071°03'0 0.0
2016-May-03 04:33N 42°23' W 071°03'0 0.0
2016-May-03 03:33N 42°23' W 071°03'0 0.0
2016-May-03 02:33N 42°23' W 071°03'0 0.0
2016-May-03 01:33N 42°23' W 071°03'0 0.4
2016-May-03 00:28N 42°23' W 071°03'4 4.7
2016-May-02 23:33N 42°20' W 070°59'6 5.6
2016-May-02 22:32N 42°15' W 070°58'1 1.2
2016-May-02 21:27N 42°15' W 070°57'5 5.8
2016-May-02 20:34N 42°20' W 070°59'4 3.6
2016-May-02 19:33N 42°23' W 071°03'0 0.0
2016-May-02 18:33N 42°23' W 071°03'1 0.8
2016-May-02 17:33N 42°23' W 071°02'0 0.5
2016-May-02 16:33N 42°23' W 071°01'1 0.7
2016-May-02 15:33N 42°23' W 071°02'0 0.5
2016-May-02 14:33N 42°23' W 071°03'0 0.3
2016-May-02 13:33N 42°23' W 071°03'2 2.2
2016-May-02 12:33N 42°21' W 071°01'2 2.0
2016-May-02 11:33N 42°20' W 070°59'2 2.1
2016-May-02 10:33N 42°21' W 071°01'1 0.5
2016-May-02 09:33N 42°21' W 071°01'2 1.9
2016-May-02 08:33N 42°23' W 071°03'0 0.0
2016-May-02 07:33N 42°23' W 071°03'0 0.0
2016-May-02 06:33N 42°23' W 071°03'0 0.0
2016-May-02 05:33N 42°23' W 071°03'0 0.0
2016-May-02 04:33N 42°23' W 071°03'0 0.0
2016-May-02 03:33N 42°23' W 071°03'0 0.0
2016-May-02 02:33N 42°23' W 071°03'1 0.9
2016-May-02 01:33N 42°22' W 071°03'8 7.9
2016-May-02 00:33N 42°15' W 070°57'1 1.0
2016-May-01 23:34N 42°14' W 070°58'3 3.3
2016-May-01 22:33N 42°17' W 070°56'5 5.3
2016-May-01 21:33N 42°21' W 071°01'2 2.4
2016-May-01 20:33N 42°23' W 071°03'0 0.0
2016-May-01 19:33N 42°23' W 071°03'0 0.0
2016-May-01 18:33N 42°23' W 071°03'0 0.0
2016-May-01 17:33N 42°23' W 071°03'0 0.0
2016-May-01 16:33N 42°23' W 071°03'0 0.0
2016-May-01 15:33N 42°23' W 071°03'0 0.0
2016-May-01 14:33N 42°23' W 071°03'0 0.0
2016-May-01 13:33N 42°23' W 071°03'0 0.0
2016-May-01 12:33N 42°23' W 071°03'0 0.0
2016-May-01 11:33N 42°23' W 071°03'2 1.7
2016-May-01 10:33N 42°24' W 071°01'1 1.3
2016-May-01 09:33N 42°23' W 071°02'0 0.4
2016-May-01 08:33N 42°23' W 071°03'0 0.0
2016-May-01 07:33N 42°23' W 071°03'0 0.0
2016-May-01 06:33N 42°23' W 071°03'0 0.0
2016-May-01 05:33N 42°23' W 071°03'0 0.0
2016-May-01 04:33N 42°23' W 071°03'0 0.0
2016-May-01 03:33N 42°23' W 071°03'0 0.0
2016-May-01 02:33N 42°23' W 071°03'2 2.5
2016-May-01 01:33N 42°21' W 071°01'0 0.2
2016-May-01 00:33N 42°21' W 071°01'0 0.2
2016-Apr-30 23:34N 42°21' W 071°01'3 2.6
2016-Apr-30 22:33N 42°23' W 071°02'0 0.5
2016-Apr-30 21:34N 42°23' W 071°02'1 0.8
2016-Apr-30 20:33N 42°23' W 071°03'0 0.0
2016-Apr-30 19:33N 42°23' W 071°03'0 0.0
2016-Apr-30 18:33N 42°23' W 071°03'0 0.0
2016-Apr-30 17:33N 42°23' W 071°03'0 0.0
2016-Apr-30 16:33N 42°23' W 071°03'1 0.5
2016-Apr-30 15:29N 42°23' W 071°03'1 1.6
2016-Apr-30 14:33N 42°22' W 071°03'1 1.0
2016-Apr-30 13:32N 42°23' W 071°03'0 0.0
2016-Apr-30 12:33N 42°23' W 071°03'0 0.0
2016-Apr-30 11:33N 42°23' W 071°03'1 0.8
2016-Apr-30 10:34N 42°23' W 071°03'3 3.2
2016-Apr-30 09:34N 42°21' W 071°01'2 2.2
2016-Apr-30 08:33N 42°22' W 071°03'1 1.1
2016-Apr-30 07:33N 42°23' W 071°02'2 1.8
2016-Apr-30 06:33N 42°21' W 071°02'2 1.8
2016-Apr-30 05:33N 42°23' W 071°03'1 1.0
2016-Apr-30 04:33N 42°23' W 071°01'0 0.2
2016-Apr-30 03:33N 42°23' W 071°01'1 0.7
2016-Apr-30 02:33N 42°24' W 071°01'2 1.6
2016-Apr-30 01:33N 42°23' W 071°03'0 0.3
2016-Apr-30 00:33N 42°23' W 071°03'3 2.7
2016-Apr-29 23:33N 42°21' W 071°01'3 2.7
2016-Apr-29 22:33N 42°23' W 071°03'0 0.0
2016-Apr-29 21:33N 42°23' W 071°03'0 0.0
2016-Apr-29 20:33N 42°23' W 071°03'0 0.0
2016-Apr-29 19:33N 42°23' W 071°03'0 0.0
2016-Apr-29 18:33N 42°23' W 071°03'0 0.0
2016-Apr-29 17:33N 42°23' W 071°03'0 0.0
2016-Apr-29 16:33N 42°23' W 071°03'0 0.2
2016-Apr-29 15:33N 42°23' W 071°03'2 1.7
2016-Apr-29 14:33N 42°24' W 071°01'2 1.8
2016-Apr-29 13:33N 42°23' W 071°03'0 0.0
2016-Apr-29 12:33N 42°23' W 071°03'0 0.0
2016-Apr-29 11:33N 42°23' W 071°03'0 0.0
2016-Apr-29 10:33N 42°23' W 071°03'1 0.6
2016-Apr-29 09:33N 42°23' W 071°02'1 0.6
2016-Apr-29 08:33N 42°23' W 071°03'2 2.4
2016-Apr-29 07:33N 42°21' W 071°01'2 1.7
2016-Apr-29 06:33N 42°20' W 070°59'3 3.4
2016-Apr-29 05:33N 42°23' W 071°01'1 0.9
2016-Apr-29 04:33N 42°23' W 071°03'0 0.0
2016-Apr-29 03:33N 42°23' W 071°03'0 0.0
2016-Apr-29 02:33N 42°23' W 071°03'0 0.0
2016-Apr-29 01:33N 42°23' W 071°03'0 0.0
2016-Apr-29 00:33N 42°23' W 071°03'0 0.0
2016-Apr-28 23:33N 42°23' W 071°03'0 0.0
2016-Apr-28 22:33N 42°23' W 071°03'0 0.0
2016-Apr-28 21:33N 42°23' W 071°03'2 1.7
2016-Apr-28 20:33N 42°24' W 071°01'1 0.9
2016-Apr-28 19:32N 42°23' W 071°01'1 0.9
2016-Apr-28 18:33N 42°24' W 071°01'2 1.7
2016-Apr-28 17:33N 42°23' W 071°03'6 6.2
2016-Apr-28 16:33N 42°19' W 070°56'5 5.2
2016-Apr-28 15:33N 42°19' W 070°48'53 3.5
2016-Apr-28 00:33N 41°32' W 071°21'4 3.7
2016-Apr-27 23:33N 41°35' W 071°25'0 0.0
2016-Apr-27 22:32N 41°35' W 071°25'51 5.1
2016-Apr-27 12:33N 42°14' W 070°41'1110.6
2016-Apr-27 11:33N 42°19' W 070°53'8 7.7
2016-Apr-27 10:29N 42°23' W 071°03'2 2.3
2016-Apr-27 09:34N 42°21' W 071°02'2 1.6
2016-Apr-27 08:33N 42°23' W 071°03'0 0.4
2016-Apr-27 07:33N 42°22' W 071°03'0 0.5
2016-Apr-27 06:33N 42°23' W 071°03'0 0.0
2016-Apr-27 05:33N 42°23' W 071°03'0 0.0
2016-Apr-27 04:33N 42°23' W 071°03'1 0.8
2016-Apr-27 03:33N 42°23' W 071°02'1 1.1
2016-Apr-27 02:33N 42°23' W 071°03'2 1.7
2016-Apr-27 01:33N 42°21' W 071°01'1 0.7
2016-Apr-27 00:33N 42°21' W 071°01'2 2.5
2016-Apr-26 23:33N 42°23' W 071°03'0 0.0
2016-Apr-26 22:33N 42°23' W 071°03'0 0.0
2016-Apr-26 21:33N 42°23' W 071°03'0 0.0
2016-Apr-26 20:30N 42°23' W 071°03'0 0.0
2016-Apr-26 19:33N 42°23' W 071°03'1 0.7
2016-Apr-26 18:30N 42°23' W 071°04'1 0.8
2016-Apr-26 17:33N 42°23' W 071°03'0 0.0
2016-Apr-26 16:32N 42°23' W 071°03'0 0.0
2016-Apr-26 15:33N 42°23' W 071°03'0 0.0
2016-Apr-26 14:33N 42°23' W 071°03'0 0.0
2016-Apr-26 13:33N 42°23' W 071°03'0 0.0
2016-Apr-26 12:33N 42°23' W 071°03'0 0.0
2016-Apr-26 11:33N 42°23' W 071°03'0 0.0
2016-Apr-26 10:33N 42°23' W 071°03'0 0.0
2016-Apr-26 09:33N 42°23' W 071°03'2 2.5
2016-Apr-26 08:33N 42°21' W 071°01'1 1.0
2016-Apr-26 07:33N 42°20' W 070°60'3 3.3
2016-Apr-26 06:33N 42°23' W 071°03'0 0.0
2016-Apr-26 05:33N 42°23' W 071°03'0 0.0
2016-Apr-26 04:33N 42°23' W 071°03'0 0.0
2016-Apr-26 03:33N 42°23' W 071°03'0 0.0
2016-Apr-26 02:33N 42°23' W 071°03'0 0.0
2016-Apr-26 01:33N 42°23' W 071°03'0 0.0
2016-Apr-26 00:33N 42°23' W 071°03'1 1.1
2016-Apr-25 23:33N 42°22' W 071°02'1 0.8
2016-Apr-25 22:33N 42°21' W 071°02'2 1.9
2016-Apr-25 21:33N 42°23' W 071°02'1 0.7
2016-Apr-25 20:33N 42°23' W 071°03'0 0.0
2016-Apr-25 19:33N 42°23' W 071°03'0 0.0
2016-Apr-25 18:33N 42°23' W 071°03'0 0.0
2016-Apr-25 17:33N 42°23' W 071°03'0 0.0
2016-Apr-25 16:33N 42°23' W 071°03'0 0.0
2016-Apr-25 15:33N 42°23' W 071°03'0 0.0
2016-Apr-25 14:33N 42°23' W 071°03'0 0.1
2016-Apr-25 13:33N 42°23' W 071°03'0 0.0
2016-Apr-25 12:33N 42°23' W 071°03'0 0.1
2016-Apr-25 11:33N 42°23' W 071°03'2 2.5
2016-Apr-25 10:33N 42°21' W 071°01'1 0.9
2016-Apr-25 09:33N 42°20' W 070°60'3 3.2
2016-Apr-25 08:33N 42°23' W 071°03'0 0.0
2016-Apr-25 07:33N 42°23' W 071°03'0 0.0
2016-Apr-25 06:33N 42°23' W 071°03'0 0.1
2016-Apr-25 05:33N 42°23' W 071°03'0 0.1
2016-Apr-25 04:33N 42°23' W 071°03'0 0.0
2016-Apr-25 03:33N 42°23' W 071°03'0 0.0
2016-Apr-25 02:33N 42°23' W 071°03'0 0.4
2016-Apr-25 01:33N 42°22' W 071°03'9 8.5
2016-Apr-25 00:33N 42°19' W 070°52'10 9.6
2016-Apr-24 23:33N 42°17' W 070°39'8 7.9
2016-Apr-24 22:33N 42°11' W 070°33'10 9.5
2016-Apr-24 21:33N 42°02' W 070°30'  
Track history (hours):
 
Tides and Currents Weather Stations Pressure Air Temp Water Temp Dewpoint Dewpoint Depression Visibility Wind Speed Wind Dir Waves Ship Positions

Justice

Owner: Boston Towing & Transportation, Boston, MA. More information available from US FCC via Universal Licensing System and Coast Guard Vessel Documentation Center.

Last reported at 2016-May-04 03:33 UTC. Time now 2016-May-04 04:11 UTC.
Position N 42°23' W 071°03'.

Length 30 m; draft 5.8 m.

Type: Tug. MMSI: 367513010.

Date/timePositionNaut miles runAvg speedWind from/ knotsBaromVisibWave heightAir tempDewpointWater temp
2016-May-04 03:33N 42°23' W 071°03'0 0.0
2016-May-04 02:33N 42°23' W 071°03'0 0.0
2016-May-04 01:33N 42°23' W 071°03'0 0.0
2016-May-04 00:33N 42°23' W 071°03'0 0.0
2016-May-03 23:33N 42°23' W 071°03'2 1.6
2016-May-03 22:33N 42°24' W 071°01'3 2.7
2016-May-03 21:34N 42°21' W 071°02'2 1.6
2016-May-03 20:33N 42°23' W 071°03'0 0.0
2016-May-03 19:33N 42°23' W 071°03'2 2.1
2016-May-03 18:33N 42°21' W 071°01'7 6.6
2016-May-03 17:33N 42°15' W 070°57'1 0.5
2016-May-03 16:33N 42°15' W 070°57'6 6.0
2016-May-03 15:33N 42°20' W 071°01'3 2.7
2016-May-03 14:33N 42°23' W 071°01'1 0.3
2016-May-03 11:30N 42°23' W 071°03'0 0.3
2016-May-03 10:34N 42°23' W 071°03'0 0.3
2016-May-03 09:33N 42°23' W 071°02'0 0.4
2016-May-03 08:33N 42°23' W 071°03'0 0.1
2016-May-03 07:33N 42°23' W 071°03'0 0.0
2016-May-03 06:33N 42°23' W 071°03'0 0.0
2016-May-03 05:33N 42°23' W 071°03'0 0.0
2016-May-03 04:33N 42°23' W 071°03'0 0.0
2016-May-03 03:33N 42°23' W 071°03'0 0.0
2016-May-03 02:33N 42°23' W 071°03'0 0.0
2016-May-03 01:33N 42°23' W 071°03'0 0.4
2016-May-03 00:28N 42°23' W 071°03'4 4.7
2016-May-02 23:33N 42°20' W 070°59'6 5.6
2016-May-02 22:32N 42°15' W 070°58'1 1.2
2016-May-02 21:27N 42°15' W 070°57'5 5.8
2016-May-02 20:34N 42°20' W 070°59'4 3.6
2016-May-02 19:33N 42°23' W 071°03'0 0.0
2016-May-02 18:33N 42°23' W 071°03'1 0.8
2016-May-02 17:33N 42°23' W 071°02'0 0.5
2016-May-02 16:33N 42°23' W 071°01'1 0.7
2016-May-02 15:33N 42°23' W 071°02'0 0.5
2016-May-02 14:33N 42°23' W 071°03'0 0.3
2016-May-02 13:33N 42°23' W 071°03'2 2.2
2016-May-02 12:33N 42°21' W 071°01'2 2.0
2016-May-02 11:33N 42°20' W 070°59'2 2.1
2016-May-02 10:33N 42°21' W 071°01'1 0.5
2016-May-02 09:33N 42°21' W 071°01'2 1.9
2016-May-02 08:33N 42°23' W 071°03'0 0.0
2016-May-02 07:33N 42°23' W 071°03'0 0.0
2016-May-02 06:33N 42°23' W 071°03'0 0.0
2016-May-02 05:33N 42°23' W 071°03'0 0.0
2016-May-02 04:33N 42°23' W 071°03'0 0.0
2016-May-02 03:33N 42°23' W 071°03'0 0.0
2016-May-02 02:33N 42°23' W 071°03'1 0.9
2016-May-02 01:33N 42°22' W 071°03'8 7.9
2016-May-02 00:33N 42°15' W 070°57'1 1.0
2016-May-01 23:34N 42°14' W 070°58'3 3.3
2016-May-01 22:33N 42°17' W 070°56'5 5.3
2016-May-01 21:33N 42°21' W 071°01'2 2.4
2016-May-01 20:33N 42°23' W 071°03'0 0.0
2016-May-01 19:33N 42°23' W 071°03'0 0.0
2016-May-01 18:33N 42°23' W 071°03'0 0.0
2016-May-01 17:33N 42°23' W 071°03'0 0.0
2016-May-01 16:33N 42°23' W 071°03'0 0.0
2016-May-01 15:33N 42°23' W 071°03'0 0.0
2016-May-01 14:33N 42°23' W 071°03'0 0.0
2016-May-01 13:33N 42°23' W 071°03'0 0.0
2016-May-01 12:33N 42°23' W 071°03'0 0.0
2016-May-01 11:33N 42°23' W 071°03'2 1.7
2016-May-01 10:33N 42°24' W 071°01'1 1.3
2016-May-01 09:33N 42°23' W 071°02'0 0.4
2016-May-01 08:33N 42°23' W 071°03'0 0.0
2016-May-01 07:33N 42°23' W 071°03'0 0.0
2016-May-01 06:33N 42°23' W 071°03'0 0.0
2016-May-01 05:33N 42°23' W 071°03'0 0.0
2016-May-01 04:33N 42°23' W 071°03'0 0.0
2016-May-01 03:33N 42°23' W 071°03'0 0.0
2016-May-01 02:33N 42°23' W 071°03'2 2.5
2016-May-01 01:33N 42°21' W 071°01'0 0.2
2016-May-01 00:33N 42°21' W 071°01'0 0.2
2016-Apr-30 23:34N 42°21' W 071°01'3 2.6
2016-Apr-30 22:33N 42°23' W 071°02'0 0.5
2016-Apr-30 21:34N 42°23' W 071°02'1 0.8
2016-Apr-30 20:33N 42°23' W 071°03'0 0.0
2016-Apr-30 19:33N 42°23' W 071°03'0 0.0
2016-Apr-30 18:33N 42°23' W 071°03'0 0.0
2016-Apr-30 17:33N 42°23' W 071°03'0 0.0
2016-Apr-30 16:33N 42°23' W 071°03'1 0.5
2016-Apr-30 15:29N 42°23' W 071°03'1 1.6
2016-Apr-30 14:33N 42°22' W 071°03'1 1.0
2016-Apr-30 13:32N 42°23' W 071°03'0 0.0
2016-Apr-30 12:33N 42°23' W 071°03'0 0.0
2016-Apr-30 11:33N 42°23' W 071°03'1 0.8
2016-Apr-30 10:34N 42°23' W 071°03'3 3.2
2016-Apr-30 09:34N 42°21' W 071°01'2 2.2
2016-Apr-30 08:33N 42°22' W 071°03'1 1.1
2016-Apr-30 07:33N 42°23' W 071°02'2 1.8
2016-Apr-30 06:33N 42°21' W 071°02'2 1.8
2016-Apr-30 05:33N 42°23' W 071°03'1 1.0
2016-Apr-30 04:33N 42°23' W 071°01'0 0.2
2016-Apr-30 03:33N 42°23' W 071°01'1 0.7
2016-Apr-30 02:33N 42°24' W 071°01'2 1.6
2016-Apr-30 01:33N 42°23' W 071°03'0 0.3
2016-Apr-30 00:33N 42°23' W 071°03'3 2.7
2016-Apr-29 23:33N 42°21' W 071°01'3 2.7
2016-Apr-29 22:33N 42°23' W 071°03'0 0.0
2016-Apr-29 21:33N 42°23' W 071°03'0 0.0
2016-Apr-29 20:33N 42°23' W 071°03'0 0.0
2016-Apr-29 19:33N 42°23' W 071°03'0 0.0
2016-Apr-29 18:33N 42°23' W 071°03'0 0.0
2016-Apr-29 17:33N 42°23' W 071°03'0 0.0
2016-Apr-29 16:33N 42°23' W 071°03'0 0.2
2016-Apr-29 15:33N 42°23' W 071°03'2 1.7
2016-Apr-29 14:33N 42°24' W 071°01'2 1.8
2016-Apr-29 13:33N 42°23' W 071°03'0 0.0
2016-Apr-29 12:33N 42°23' W 071°03'0 0.0
2016-Apr-29 11:33N 42°23' W 071°03'0 0.0
2016-Apr-29 10:33N 42°23' W 071°03'1 0.6
2016-Apr-29 09:33N 42°23' W 071°02'1 0.6
2016-Apr-29 08:33N 42°23' W 071°03'2 2.4
2016-Apr-29 07:33N 42°21' W 071°01'2 1.7
2016-Apr-29 06:33N 42°20' W 070°59'3 3.4
2016-Apr-29 05:33N 42°23' W 071°01'1 0.9
2016-Apr-29 04:33N 42°23' W 071°03'0 0.0
2016-Apr-29 03:33N 42°23' W 071°03'0 0.0
2016-Apr-29 02:33N 42°23' W 071°03'0 0.0
2016-Apr-29 01:33N 42°23' W 071°03'0 0.0
2016-Apr-29 00:33N 42°23' W 071°03'0 0.0
2016-Apr-28 23:33N 42°23' W 071°03'0 0.0
2016-Apr-28 22:33N 42°23' W 071°03'0 0.0
2016-Apr-28 21:33N 42°23' W 071°03'2 1.7
2016-Apr-28 20:33N 42°24' W 071°01'1 0.9
2016-Apr-28 19:32N 42°23' W 071°01'1 0.9
2016-Apr-28 18:33N 42°24' W 071°01'2 1.7
2016-Apr-28 17:33N 42°23' W 071°03'6 6.2
2016-Apr-28 16:33N 42°19' W 070°56'5 5.2
2016-Apr-28 15:33N 42°19' W 070°48'53 3.5
2016-Apr-28 00:33N 41°32' W 071°21'4 3.7
2016-Apr-27 23:33N 41°35' W 071°25'0 0.0
2016-Apr-27 22:32N 41°35' W 071°25'51 5.1
2016-Apr-27 12:33N 42°14' W 070°41'1110.6
2016-Apr-27 11:33N 42°19' W 070°53'8 7.7
2016-Apr-27 10:29N 42°23' W 071°03'2 2.3
2016-Apr-27 09:34N 42°21' W 071°02'2 1.6
2016-Apr-27 08:33N 42°23' W 071°03'0 0.4
2016-Apr-27 07:33N 42°22' W 071°03'0 0.5
2016-Apr-27 06:33N 42°23' W 071°03'0 0.0
2016-Apr-27 05:33N 42°23' W 071°03'0 0.0
2016-Apr-27 04:33N 42°23' W 071°03'1 0.8
2016-Apr-27 03:33N 42°23' W 071°02'1 1.1
2016-Apr-27 02:33N 42°23' W 071°03'2 1.7
2016-Apr-27 01:33N 42°21' W 071°01'1 0.7
2016-Apr-27 00:33N 42°21' W 071°01'2 2.5
2016-Apr-26 23:33N 42°23' W 071°03'0 0.0
2016-Apr-26 22:33N 42°23' W 071°03'0 0.0
2016-Apr-26 21:33N 42°23' W 071°03'0 0.0
2016-Apr-26 20:30N 42°23' W 071°03'0 0.0
2016-Apr-26 19:33N 42°23' W 071°03'1 0.7
2016-Apr-26 18:30N 42°23' W 071°04'1 0.8
2016-Apr-26 17:33N 42°23' W 071°03'0 0.0
2016-Apr-26 16:32N 42°23' W 071°03'0 0.0
2016-Apr-26 15:33N 42°23' W 071°03'0 0.0
2016-Apr-26 14:33N 42°23' W 071°03'0 0.0
2016-Apr-26 13:33N 42°23' W 071°03'0 0.0
2016-Apr-26 12:33N 42°23' W 071°03'0 0.0
2016-Apr-26 11:33N 42°23' W 071°03'0 0.0
2016-Apr-26 10:33N 42°23' W 071°03'0 0.0
2016-Apr-26 09:33N 42°23' W 071°03'2 2.5
2016-Apr-26 08:33N 42°21' W 071°01'1 1.0
2016-Apr-26 07:33N 42°20' W 070°60'3 3.3
2016-Apr-26 06:33N 42°23' W 071°03'0 0.0
2016-Apr-26 05:33N 42°23' W 071°03'0 0.0
2016-Apr-26 04:33N 42°23' W 071°03'0 0.0
2016-Apr-26 03:33N 42°23' W 071°03'0 0.0
2016-Apr-26 02:33N 42°23' W 071°03'0 0.0
2016-Apr-26 01:33N 42°23' W 071°03'0 0.0
2016-Apr-26 00:33N 42°23' W 071°03'1 1.1
2016-Apr-25 23:33N 42°22' W 071°02'1 0.8
2016-Apr-25 22:33N 42°21' W 071°02'2 1.9
2016-Apr-25 21:33N 42°23' W 071°02'1 0.7
2016-Apr-25 20:33N 42°23' W 071°03'0 0.0
2016-Apr-25 19:33N 42°23' W 071°03'0 0.0
2016-Apr-25 18:33N 42°23' W 071°03'0 0.0
2016-Apr-25 17:33N 42°23' W 071°03'0 0.0
2016-Apr-25 16:33N 42°23' W 071°03'0 0.0
2016-Apr-25 15:33N 42°23' W 071°03'0 0.0
2016-Apr-25 14:33N 42°23' W 071°03'0 0.1
2016-Apr-25 13:33N 42°23' W 071°03'0 0.0
2016-Apr-25 12:33N 42°23' W 071°03'0 0.1
2016-Apr-25 11:33N 42°23' W 071°03'2 2.5
2016-Apr-25 10:33N 42°21' W 071°01'1 0.9
2016-Apr-25 09:33N 42°20' W 070°60'3 3.2
2016-Apr-25 08:33N 42°23' W 071°03'0 0.0
2016-Apr-25 07:33N 42°23' W 071°03'0 0.0
2016-Apr-25 06:33N 42°23' W 071°03'0 0.1
2016-Apr-25 05:33N 42°23' W 071°03'0 0.1
2016-Apr-25 04:33N 42°23' W 071°03'0 0.0
2016-Apr-25 03:33N 42°23' W 071°03'0 0.0
2016-Apr-25 02:33N 42°23' W 071°03'0 0.4
2016-Apr-25 01:33N 42°22' W 071°03'9 8.5
2016-Apr-25 00:33N 42°19' W 070°52'10 9.6
2016-Apr-24 23:33N 42°17' W 070°39'8 7.9
2016-Apr-24 22:33N 42°11' W 070°33'10 9.5
2016-Apr-24 21:33N 42°02' W 070°30'  

Dump ship's entire track history